KOFK

Norfolk Regional / Karl Stefan Memorial Field Airport

Norfolk, Nebraska, USA
METAR KOFK 252156Z AUTO 32009KT 10SM CLR 34/12 A2973 RMK AO2 LTG DSNT SE SLP053 T03440117
Observed Flight Rules
May-25 @ 21:56 UTC (36 minutes ago) Visual Flight Rules
Wind Visibility Clouds
320° at 9 knots 10 miles
  • Clear skies
Temperatures Readings
Current 34°C / 93°F
Dewpoint 12°C / 54°F
Humidity 26%
Altimeter 29.73" Hg
Pressure 1005.3 hPa
Elevation 470
METAR KOFK 252156Z AUTO 32009KT 10SM CLR 34/12 A2973 RMK AO2 LTG DSNT SE SLP053 T03440117
Observed Flight Rules
May-25 @ 21:56 UTC
(36 minutes ago)
VFR
Wind Visibility
320° at 9 knots 10 miles
Clouds
  • Clear skies
Temperature Dewpoint
34°C / 93°F 12°C / 54°F
Humidity Altimeter Pressure
26% 29.73" Hg 1005.3 hPa